Time;durP1;ratioP1;P1;durP2;ratioP2;P2;SDS_P1;SDS_P2;PMS_P1;PMS_P2;Temp;Humidity;BMP_temperature;BMP_pressure;BME280_temperature;BME280_humidity;BME280_pressure;Samples;Min_cycle;Max_cycle;Signal;HPM_P1;HPM_P2
2021/01/31 00:04:49;;;;;;;58.13;19.03;;;;;;;-3.93;72.50;99672.53;4699049;61;1138472;-88
2021/01/31 00:09:55;;;;;;;42.03;16.50;;;;;;;-3.81;72.58;99673.02;4673053;61;1138551;-88
2021/01/31 00:15:02;;;;;;;50.43;17.57;;;;;;;-3.73;72.42;99674.48;4724463;61;1138429;-88
2021/01/31 00:20:12;;;;;;;55.90;18.20;;;;;;;-3.59;72.83;99665.81;4693677;60;1138530;-88
2021/01/31 00:25:19;;;;;;;44.25;15.68;;;;;;;-3.49;72.51;99673.25;4690820;60;1138391;-88
2021/01/31 00:30:29;;;;;;;60.53;19.93;;;;;;;-3.44;72.45;99677.38;4705238;61;1138398;-88
2021/01/31 00:35:39;;;;;;;27.17;9.30;;;;;;;-3.43;72.08;99674.34;4686155;59;1138364;-88
2021/01/31 00:40:46;;;;;;;21.87;7.87;;;;;;;-3.46;71.85;99678.31;4717658;59;1136364;-88
2021/01/31 00:45:53;;;;;;;18.35;6.97;;;;;;;-3.57;72.05;99669.64;4680294;59;1136550;-88
2021/01/31 00:50:58;;;;;;;17.80;6.03;;;;;;;-3.44;72.30;99680.41;4672765;61;1136387;-88
2021/01/31 00:56:05;;;;;;;21.82;7.80;;;;;;;-3.39;72.25;99684.98;4698168;60;1136522;-88
2021/01/31 01:01:15;;;;;;;8.00;4.20;;;;;;;-3.40;72.21;99689.75;4694612;60;1136493;-88
2021/01/31 01:06:20;;;;;;;16.17;6.90;;;;;;;-3.43;71.89;99684.69;4707269;59;1134588;-88
2021/01/31 01:11:26;;;;;;;10.97;4.07;;;;;;;-3.49;71.86;99672.80;4707204;61;1136843;-89
2021/01/31 01:16:31;;;;;;;20.87;7.77;;;;;;;-3.55;71.99;99675.61;4693350;59;1136487;-88
2021/01/31 01:21:37;;;;;;;14.93;5.20;;;;;;;-3.61;72.13;99663.73;4709211;61;1136225;-88
2021/01/31 01:26:42;;;;;;;18.55;5.80;;;;;;;-3.63;72.29;99661.64;4708959;61;1136346;-88
2021/01/31 01:31:48;;;;;;;17.63;5.97;;;;;;;-3.62;72.44;99657.31;4723115;59;1136216;-88
2021/01/31 01:36:54;;;;;;;13.30;4.77;;;;;;;-3.62;72.53;99658.16;4694149;60;1136379;-88
2021/01/31 01:41:59;;;;;;;17.10;4.87;;;;;;;-3.60;72.52;99657.67;4720702;60;1136721;-88
2021/01/31 01:47:09;;;;;;;11.38;4.25;;;;;;;-3.59;72.52;99664.52;4763780;61;1134262;-88
2021/01/31 01:52:39;;;;;;;12.65;4.72;;;;;;;-3.60;72.21;99656.82;4703604;60;1136685;-86
2021/01/31 01:57:49;;;;;;;13.37;4.80;;;;;;;-3.60;72.17;99648.63;4712253;60;1136332;-87
2021/01/31 02:03:08;;;;;;;6.33;3.07;;;;;;;-3.58;72.27;99648.13;4686405;60;1136669;-87
2021/01/31 02:08:14;;;;;;;14.40;5.20;;;;;;;-3.56;71.77;99635.16;4685152;60;1134413;-87
2021/01/31 02:13:20;;;;;;;16.67;5.67;;;;;;;-3.54;71.70;99632.08;4711043;61;1136323;-87
2021/01/31 02:19:02;;;;;;;10.07;4.73;;;;;;;-3.58;71.56;99636.95;4774430;61;21217;-88
2021/01/31 02:24:51;;;;;;;13.50;4.87;;;;;;;-3.67;71.23;99634.23;4696467;59;1132140;-87
2021/01/31 02:30:33;;;;;;;12.97;4.93;;;;;;;-3.80;71.10;99632.09;4765998;61;1137053;-88
2021/01/31 02:35:40;;;;;;;8.70;4.43;;;;;;;-3.90;71.30;99636.73;4752872;58;1136632;-89
2021/01/31 02:40:55;;;;;;;11.27;5.40;;;;;;;-3.95;71.39;99639.90;4785576;58;1134306;-90
2021/01/31 02:46:08;;;;;;;7.53;4.30;;;;;;;-4.00;71.55;99638.78;4733463;61;1136307;-88
2021/01/31 02:51:30;;;;;;;3.57;2.53;;;;;;;-4.01;71.56;99646.12;4753176;61;1134216;-88
2021/01/31 02:57:07;;;;;;;6.60;3.52;;;;;;;-4.00;71.63;99654.28;4761374;59;1134306;-88
2021/01/31 03:02:22;;;;;;;11.20;4.87;;;;;;;-3.99;71.79;99657.26;4742483;59;1134287;-89
2021/01/31 03:07:42;;;;;;;13.90;4.50;;;;;;;-3.97;71.84;99655.89;4737020;59;1136378;-88
2021/01/31 03:12:55;;;;;;;11.03;5.57;;;;;;;-3.95;71.81;99646.36;4641980;60;1136571;-89
2021/01/31 03:18:19;;;;;;;10.20;5.72;;;;;;;-3.93;71.72;99647.16;4597803;60;1136590;-88
2021/01/31 03:23:52;;;;;;;14.00;5.90;;;;;;;-3.93;71.68;99642.84;4665859;60;1136307;-89
2021/01/31 03:28:57;;;;;;;6.30;2.83;;;;;;;-3.87;71.68;99646.97;4703128;59;1136593;-89
2021/01/31 03:34:08;;;;;;;10.43;4.80;;;;;;;-3.85;71.51;99632.71;4689971;60;1134720;-89
2021/01/31 03:39:16;;;;;;;5.13;2.40;;;;;;;-3.87;71.72;99652.13;4705558;59;1136526;-89
2021/01/31 03:44:22;;;;;;;8.50;4.03;;;;;;;-3.84;71.44;99658.94;4685902;60;1134223;-88
2021/01/31 03:49:38;;;;;;;12.33;5.23;;;;;;;-3.84;71.50;99657.66;4717051;61;1134293;-88
2021/01/31 03:54:44;;;;;;;7.03;4.30;;;;;;;-3.86;71.54;99662.86;4717349;61;1136360;-88
2021/01/31 04:00:00;;;;;;;4.15;2.92;;;;;;;-3.84;71.55;99667.98;4739735;60;1134233;-89
2021/01/31 04:05:07;;;;;;;12.33;5.83;;;;;;;-3.82;71.37;99672.66;4759939;61;1134086;-89
2021/01/31 04:10:15;;;;;;;8.15;4.22;;;;;;;-3.87;71.46;99675.38;4689661;60;1136324;-89
2021/01/31 04:15:46;;;;;;;7.50;3.50;;;;;;;-3.83;71.53;99673.55;4709274;59;1134402;-88
2021/01/31 04:20:53;;;;;;;7.17;3.83;;;;;;;-3.85;71.40;99674.04;4726944;61;1134299;-88
2021/01/31 04:26:02;;;;;;;11.38;4.75;;;;;;;-3.83;71.35;99676.13;4691022;60;1134675;-88
2021/01/31 04:31:08;;;;;;;8.00;3.63;;;;;;;-3.79;71.57;99669.50;4693637;60;1136262;-88
2021/01/31 04:36:14;;;;;;;10.50;4.22;;;;;;;-3.79;71.34;99664.33;4701998;59;1134434;-88
2021/01/31 04:41:20;;;;;;;5.70;3.20;;;;;;;-3.82;71.04;99659.30;4689062;60;1136532;-88
2021/01/31 04:46:44;;;;;;;6.33;2.83;;;;;;;-3.83;71.04;99674.39;4703144;60;1134783;-88
2021/01/31 04:52:08;;;;;;;12.23;6.00;;;;;;;-3.87;71.45;99687.00;4693186;60;1134483;-88
2021/01/31 04:57:19;;;;;;;8.10;3.97;;;;;;;-3.90;71.55;99696.14;4675944;60;1136453;-88
2021/01/31 05:02:36;;;;;;;12.77;6.20;;;;;;;-3.93;71.60;99694.94;4694432;60;1134470;-89
2021/01/31 05:07:57;;;;;;;11.10;5.33;;;;;;;-3.94;71.78;99699.25;4652914;59;1136380;-89
2021/01/31 05:13:19;;;;;;;17.93;5.90;;;;;;;-3.97;71.80;99690.75;4667289;60;1137169;-89
2021/01/31 05:18:26;;;;;;;9.75;4.87;;;;;;;-4.02;72.06;99691.37;4663291;60;1136397;-88
2021/01/31 05:23:39;;;;;;;17.63;7.90;;;;;;;-4.08;72.20;99691.55;4633818;60;1134848;-88
2021/01/31 05:28:47;;;;;;;;;;;;;;;-4.07;72.40;99697.11;4536164;62;1136465;-88
2021/01/31 05:33:59;;;;;;;15.13;4.77;;;;;;;-4.08;72.46;99706.59;4553786;63;972049;-88
2021/01/31 05:39:05;;;;;;;13.13;6.35;;;;;;;-4.13;72.71;99713.66;4598242;61;1134386;-88
2021/01/31 05:44:21;;;;;;;10.08;4.75;;;;;;;-4.16;72.92;99715.03;4621142;61;1136430;-88
2021/01/31 05:49:43;;;;;;;5.27;3.33;;;;;;;-4.18;73.11;99719.84;4605163;62;1136368;-88
2021/01/31 05:54:55;;;;;;;13.10;5.30;;;;;;;-4.22;73.48;99711.78;4621824;62;1134109;-88
2021/01/31 06:00:05;;;;;;;17.07;6.40;;;;;;;-4.23;73.49;99732.88;4619798;61;1136320;-88
2021/01/31 06:05:21;;;;;;;23.03;5.83;;;;;;;-4.26;73.52;99726.06;4641018;62;1136471;-88
2021/01/31 06:10:27;;;;;;;16.63;6.43;;;;;;;-4.27;73.60;99727.41;4608131;61;1136486;-88
2021/01/31 06:15:43;;;;;;;17.43;6.80;;;;;;;-4.27;73.50;99729.98;4657022;62;1134369;-88
2021/01/31 06:20:49;;;;;;;17.23;6.40;;;;;;;-4.26;73.34;99742.00;4609228;61;1136493;-88
2021/01/31 06:25:54;;;;;;;13.33;6.93;;;;;;;-4.27;73.27;99746.31;4603649;61;1136372;-89
2021/01/31 06:31:07;;;;;;;18.83;8.60;;;;;;;-4.29;73.29;99746.84;4607637;61;1136676;-88
2021/01/31 06:36:38;;;;;;;20.08;8.33;;;;;;;-4.34;73.15;99751.28;4635881;62;1136275;-87
2021/01/31 06:41:57;;;;;;;12.90;4.37;;;;;;;-4.36;73.18;99760.80;4621117;61;1136359;-88
2021/01/31 06:47:23;;;;;;;25.07;8.20;;;;;;;-4.44;73.18;99760.63;4603375;62;1136348;-88
2021/01/31 06:53:07;;;;;;;24.97;12.00;;;;;;;-4.46;73.24;99772.73;4612446;61;1136350;-88
2021/01/31 06:58:29;;;;;;;10.23;5.33;;;;;;;-4.51;73.38;99769.42;4635693;61;1138477;-89
2021/01/31 07:04:15;;;;;;;25.87;10.73;;;;;;;-4.57;73.57;99781.20;4615726;61;1136207;-89
2021/01/31 07:09:45;;;;;;;81.37;48.23;;;;;;;-4.58;73.71;99781.64;4618915;61;1138453;-88
2021/01/31 07:15:07;;;;;;;39.90;25.53;;;;;;;-4.61;73.64;99783.03;4602105;61;1138685;-89
2021/01/31 07:20:29;;;;;;;19.20;9.93;;;;;;;-4.62;73.80;99787.80;4643384;61;1139133;-88
2021/01/31 07:25:44;;;;;;;18.53;8.63;;;;;;;-4.58;73.93;99789.86;4620592;62;1136357;-88
2021/01/31 07:31:15;;;;;;;22.67;5.70;;;;;;;-4.49;74.16;99795.59;4603539;62;1136318;-88
2021/01/31 07:36:28;;;;;;;28.10;8.17;;;;;;;-4.38;73.87;99792.25;4601404;62;1136265;-87
2021/01/31 07:41:38;;;;;;;42.57;12.97;;;;;;;-4.25;73.87;99802.63;4606338;61;1136507;-88
2021/01/31 07:46:43;;;;;;;13.80;5.93;;;;;;;-4.07;73.83;99802.53;4594528;61;1138337;-89
2021/01/31 07:52:05;;;;;;;16.20;6.87;;;;;;;-3.94;72.86;99804.30;4600678;61;1136248;-88
2021/01/31 07:57:36;;;;;;;11.93;4.40;;;;;;;-3.81;72.83;99808.20;4601000;61;1146199;-90
2021/01/31 08:02:45;;;;;;;17.63;7.13;;;;;;;-3.73;72.13;99811.86;4619054;61;1136386;-90
2021/01/31 08:08:08;;;;;;;23.23;6.93;;;;;;;-3.75;72.12;99810.61;4607208;62;1136304;-89
2021/01/31 08:13:35;;;;;;;13.95;5.78;;;;;;;-3.68;72.46;99819.03;4614940;62;1136504;-89
2021/01/31 08:18:45;;;;;;;13.93;6.27;;;;;;;-3.68;71.82;99812.13;4610441;60;1136841;-90
2021/01/31 08:23:50;;;;;;;14.00;6.40;;;;;;;-3.72;72.16;99822.59;4583903;61;1136560;-88
2021/01/31 08:28:58;;;;;;;83.62;26.07;;;;;;;-3.78;72.36;99816.31;4621456;60;1136486;-88
2021/01/31 08:34:05;;;;;;;32.13;7.83;;;;;;;-3.68;72.54;99825.48;4707782;60;1138445;-87
2021/01/31 08:39:15;;;;;;;37.10;10.95;;;;;;;-3.65;72.21;99827.95;4744689;60;1136515;-88
2021/01/31 08:44:25;;;;;;;53.93;15.70;;;;;;;-3.58;72.76;99825.59;4711947;60;1138748;-87
2021/01/31 08:49:32;;;;;;;46.05;13.78;;;;;;;-3.48;72.59;99815.80;4697389;60;1138337;-88
2021/01/31 08:54:37;;;;;;;86.67;17.77;;;;;;;-3.34;72.68;99826.55;4710355;60;1138871;-88
2021/01/31 08:59:49;;;;;;;30.43;6.93;;;;;;;-3.30;72.19;99832.87;4749175;60;1138906;-87
2021/01/31 09:05:10;;;;;;;;;;;;;;;-3.22;72.23;99838.66;4742891;60;1136540;-88
2021/01/31 09:10:40;;;;;;;9.73;3.93;;;;;;;-3.14;72.34;99833.22;4720209;60;971614;-89
2021/01/31 09:15:46;;;;;;;78.77;18.43;;;;;;;-3.10;71.83;99834.81;4716374;61;1132212;-88
2021/01/31 09:20:52;;;;;;;23.67;6.60;;;;;;;-3.04;72.25;99836.34;4727565;60;1138304;-89
2021/01/31 09:25:58;;;;;;;10.20;4.47;;;;;;;-2.96;72.05;99836.94;4770979;61;1132281;-89
2021/01/31 09:31:04;;;;;;;25.30;9.07;;;;;;;-2.95;71.47;99830.43;4701128;60;1136514;-89
2021/01/31 09:36:20;;;;;;;20.65;6.97;;;;;;;-2.89;71.42;99836.67;4747886;60;1136233;-89
2021/01/31 09:41:31;;;;;;;11.43;5.63;;;;;;;-2.86;70.79;99834.43;4693105;60;1136457;-89
2021/01/31 09:46:38;;;;;;;7.47;3.97;;;;;;;-2.81;71.12;99834.28;4730088;60;1136244;-89
2021/01/31 09:51:44;;;;;;;32.10;12.03;;;;;;;-2.76;70.83;99831.95;4697842;60;1134215;-88
2021/01/31 09:56:56;;;;;;;17.13;7.07;;;;;;;-2.70;70.72;99840.78;4695261;61;1138856;-89
2021/01/31 10:02:15;;;;;;;14.00;5.20;;;;;;;-2.66;70.47;99830.72;4681571;61;1136590;-89
2021/01/31 10:07:33;;;;;;;19.70;4.47;;;;;;;-2.56;69.97;99835.97;4760707;60;1136241;-88
2021/01/31 10:12:40;;;;;;;22.67;8.47;;;;;;;-2.45;70.28;99833.47;4800728;61;21227;-86
2021/01/31 10:17:47;;;;;;;11.90;4.53;;;;;;;-2.37;69.93;99845.67;4765067;61;1132336;-87
2021/01/31 10:22:56;;;;;;;10.07;4.63;;;;;;;-2.29;69.53;99841.09;4710419;61;1136365;-87
2021/01/31 10:28:04;;;;;;;17.33;6.67;;;;;;;-2.23;69.51;99838.25;4754387;60;1136347;-87
2021/01/31 10:33:37;;;;;;;5.43;2.60;;;;;;;-2.14;68.88;99834.05;4701479;60;1145930;-87
2021/01/31 10:38:45;;;;;;;17.40;7.20;;;;;;;-2.08;68.37;99832.52;4721430;60;1134176;-87
2021/01/31 10:44:01;;;;;;;61.30;22.40;;;;;;;-1.98;67.90;99832.55;4690266;60;1136407;-87
2021/01/31 13:46:54;;;;;;;39.77;15.93;;;;;;;2.65;55.93;99728.05;5576797;51;75808;-82
2021/01/31 13:52:00;;;;;;;79.80;26.17;;;;;;;2.86;55.63;99731.19;5417948;54;21141;-82
2021/01/31 14:02:23;;;;;;;50.77;20.97;;;;;;;3.18;52.32;99728.83;5129556;56;21334;-84
2021/01/31 14:07:29;;;;;;;22.40;10.63;;;;;;;3.30;53.17;99729.02;5222184;56;21538;-87
2021/01/31 14:12:34;;;;;;;35.40;13.80;;;;;;;3.44;53.01;99725.94;5229148;56;21185;-84
2021/01/31 14:17:42;;;;;;;66.07;30.13;;;;;;;3.45;51.77;99734.16;5247437;56;21134;-87
2021/01/31 14:22:54;;;;;;;87.23;37.47;;;;;;;3.73;52.61;99725.45;5241611;56;21180;-85
2021/01/31 14:28:00;;;;;;;33.63;16.17;;;;;;;3.95;51.91;99713.19;5206356;56;21189;-88
2021/01/31 14:33:06;;;;;;;46.80;22.13;;;;;;;3.85;50.64;99717.30;5239661;56;21072;-85
2021/01/31 14:38:11;;;;;;;34.87;14.33;;;;;;;2.51;53.29;99714.95;5201984;55;1132595;-86
2021/01/31 14:43:18;;;;;;;32.13;11.80;;;;;;;1.61;55.80;99717.36;5156025;54;1136579;-83
2021/01/31 14:48:25;;;;;;;26.25;11.15;;;;;;;0.91;57.57;99719.75;5121812;55;1136574;-83
2021/01/31 14:53:37;;;;;;;30.70;13.27;;;;;;;0.68;59.30;99715.69;5128963;56;1136647;-84
2021/01/31 14:58:47;;;;;;;31.83;13.73;;;;;;;0.69;59.31;99708.73;5105406;56;1136326;-86
2021/01/31 15:04:20;;;;;;;19.00;8.47;;;;;;;0.30;59.69;99712.39;5064711;56;1137176;-84
2021/01/31 15:09:29;;;;;;;20.40;7.70;;;;;;;-0.13;60.83;99705.77;5069891;57;1134726;-85
2021/01/31 15:14:34;;;;;;;41.57;14.47;;;;;;;-0.42;61.98;99705.82;5070951;56;1136845;-84
2021/01/31 15:19:41;;;;;;;40.73;14.23;;;;;;;-0.59;62.49;99697.95;5033959;56;1138496;-84
2021/01/31 15:24:46;;;;;;;39.63;13.37;;;;;;;-0.67;63.01;99690.13;5064859;56;1138444;-86
2021/01/31 15:29:52;;;;;;;45.53;17.00;;;;;;;-0.75;63.28;99685.27;5108229;56;1138408;-87
2021/01/31 15:34:58;;;;;;;39.83;16.33;;;;;;;-0.86;63.55;99681.86;5081002;56;1138439;-84
2021/01/31 15:40:06;;;;;;;61.63;24.90;;;;;;;-1.01;63.99;99690.31;5021960;56;1138645;-83
2021/01/31 15:45:16;;;;;;;36.15;12.65;;;;;;;-1.08;64.20;99683.27;4942097;58;1138575;-86
2021/01/31 15:50:24;;;;;;;69.37;26.27;;;;;;;-1.11;64.35;99681.26;5035222;57;1138332;-85
2021/01/31 18:27:00;;;;;;;44.73;20.40;;;;;;;-2.25;67.55;99665.23;5161607;54;2295923;-83
2021/01/31 18:32:06;;;;;;;106.43;37.27;;;;;;;-2.40;67.77;99679.63;5083202;56;1138663;-84
2021/01/31 18:37:11;;;;;;;115.10;48.07;;;;;;;-2.52;67.87;99675.76;5089608;56;1140577;-84
2021/01/31 18:42:17;;;;;;;84.10;31.52;;;;;;;-2.53;68.11;99673.23;5050992;56;1140540;-85
2021/01/31 18:47:23;;;;;;;119.27;36.77;;;;;;;-2.57;68.00;99680.25;5085587;56;1138506;-83
2021/01/31 18:52:28;;;;;;;112.90;37.70;;;;;;;-2.67;68.00;99684.55;5138032;55;1141006;-84
2021/01/31 18:57:34;;;;;;;118.23;42.03;;;;;;;-2.68;68.37;99679.82;5139767;55;1140573;-85
2021/01/31 19:02:40;;;;;;;134.07;48.13;;;;;;;-2.66;68.24;99684.49;5128291;55;1141163;-83
2021/01/31 19:07:48;;;;;;;116.03;43.00;;;;;;;-2.69;68.15;99691.07;5132155;55;1140569;-84
2021/01/31 19:12:54;;;;;;;142.30;46.30;;;;;;;-2.74;68.16;99683.07;5049873;56;1140520;-84
2021/01/31 19:18:00;;;;;;;567.63;160.97;;;;;;;-2.80;68.18;99685.91;5044610;56;1140538;-85
2021/01/31 19:23:10;;;;;;;236.17;68.47;;;;;;;-2.89;68.22;99689.20;5087093;56;1143220;-86
2021/01/31 19:28:17;;;;;;;336.53;88.87;;;;;;;-3.04;68.39;99684.58;5142103;55;1140735;-85
2021/01/31 19:33:24;;;;;;;624.03;200.67;;;;;;;-3.06;68.62;99676.05;5125101;55;1141007;-84
2021/01/31 19:38:39;;;;;;;277.15;82.72;;;;;;;-3.15;68.65;99663.88;5144979;55;1142572;-84
2021/01/31 19:43:42;;;;;;;218.17;67.23;;;;;;;-3.13;68.65;99682.33;5129661;55;1140940;-83
2021/01/31 19:48:58;;;;;;;261.02;89.97;;;;;;;-3.14;68.64;99684.52;5129272;55;1140475;-82
2021/01/31 19:54:00;;;;;;;145.27;55.20;;;;;;;-3.12;68.93;99685.76;5140016;55;1140548;-83
2021/01/31 19:59:06;;;;;;;114.40;45.67;;;;;;;-3.09;69.06;99693.41;5131066;55;1140786;-83
2021/01/31 20:04:12;;;;;;;80.40;32.67;;;;;;;-3.18;68.50;99679.05;5098354;56;1140580;-85
2021/01/31 20:09:18;;;;;;;81.63;35.47;;;;;;;-3.30;68.62;99684.66;5080615;55;1138793;-84
2021/01/31 20:14:23;;;;;;;173.20;61.07;;;;;;;-3.42;68.84;99684.63;5058194;55;1139308;-85
2021/01/31 20:19:29;;;;;;;74.37;29.57;;;;;;;-3.39;69.42;99691.45;5055751;56;1140811;-84
2021/01/31 20:24:37;;;;;;;96.75;37.58;;;;;;;-3.27;69.56;99689.28;5045392;56;1138713;-84
2021/01/31 20:29:43;;;;;;;107.30;39.93;;;;;;;-3.16;69.47;99682.88;5070454;57;1138762;-84
2021/01/31 20:34:49;;;;;;;84.60;32.87;;;;;;;-3.06;69.28;99680.38;5077113;57;1140524;-84
2021/01/31 20:39:54;;;;;;;101.90;38.40;;;;;;;-3.04;68.92;99678.11;5066176;57;1138261;-83
2021/01/31 20:45:00;;;;;;;159.83;69.33;;;;;;;-3.03;68.93;99678.95;5025578;56;1140989;-83
2021/01/31 20:50:11;;;;;;;102.53;39.87;;;;;;;-3.01;69.12;99671.54;5025877;56;1140558;-83
2021/01/31 20:55:18;;;;;;;160.78;58.20;;;;;;;-2.95;69.13;99671.78;5025505;56;1140452;-83
2021/01/31 21:00:29;;;;;;;117.77;43.17;;;;;;;-3.01;68.78;99675.42;5018862;56;1140440;-83
2021/01/31 21:05:36;;;;;;;131.65;43.58;;;;;;;-3.01;68.85;99675.42;5018963;56;1140462;-84
2021/01/31 21:10:43;;;;;;;129.10;42.53;;;;;;;-3.01;68.76;99673.28;5028640;56;1140882;-83
2021/01/31 21:15:51;;;;;;;197.17;65.13;;;;;;;-3.06;68.67;99676.05;5017944;56;1140428;-84
2021/01/31 21:20:57;;;;;;;216.78;76.00;;;;;;;-3.05;68.74;99671.69;5026848;56;1140643;-83
2021/01/31 21:26:03;;;;;;;428.30;138.67;;;;;;;-3.03;68.79;99676.37;5028075;56;1140391;-84
2021/01/31 21:31:10;;;;;;;405.57;130.43;;;;;;;-3.05;68.76;99672.54;5056675;56;1142522;-84
2021/01/31 21:36:16;;;;;;;299.40;99.30;;;;;;;-3.05;68.61;99673.83;5066664;57;1143011;-83
2021/01/31 21:41:21;;;;;;;103.20;37.43;;;;;;;-3.04;68.54;99671.64;5081084;56;1140549;-83
2021/01/31 21:46:27;;;;;;;576.10;219.10;;;;;;;-3.24;67.67;99674.95;5086475;56;1141256;-83
2021/01/31 21:51:32;;;;;;;217.10;78.22;;;;;;;-3.37;68.38;99671.11;5111826;55;1142444;-83
2021/01/31 21:56:38;;;;;;;413.77;121.70;;;;;;;-3.34;68.81;99670.14;5045210;56;1141063;-82
2021/01/31 22:01:46;;;;;;;504.13;156.07;;;;;;;-3.37;68.46;99671.11;5064312;56;1142873;-83
2021/01/31 22:06:51;;;;;;;560.13;166.23;;;;;;;-3.39;68.35;99667.73;4944270;57;1142505;-82
2021/01/31 22:11:56;;;;;;;471.87;148.30;;;;;;;-3.39;68.63;99668.17;5075088;56;1142587;-83
2021/01/31 22:17:02;;;;;;;175.97;53.57;;;;;;;-3.44;68.51;99672.66;5063622;56;1142809;-82
2021/01/31 22:44:25;;;;;;;153.37;48.77;;;;;;;-3.62;68.40;99668.50;5537705;52;21425;-81
2021/01/31 22:49:30;;;;;;;197.43;63.90;;;;;;;-3.91;67.88;99661.71;5447221;53;21187;-81
2021/01/31 22:54:36;;;;;;;143.10;48.47;;;;;;;-3.93;67.94;99660.91;5480773;53;21049;-81
2021/01/31 22:59:41;;;;;;;160.47;52.40;;;;;;;-3.94;67.75;99661.80;5487268;53;21120;-81
2021/01/31 23:04:47;;;;;;;273.13;78.27;;;;;;;-3.96;67.83;99662.30;5500574;53;21495;-81
2021/01/31 23:09:52;;;;;;;227.20;63.90;;;;;;;-4.04;67.51;99661.72;5430644;53;21174;-81
2021/01/31 23:14:57;;;;;;;193.70;56.87;;;;;;;-4.09;67.48;99655.84;5507238;53;21107;-81
2021/01/31 23:20:05;;;;;;;313.37;82.53;;;;;;;-4.12;67.69;99657.22;5293226;55;21161;-81
2021/01/31 23:25:32;;;;;;;181.83;54.73;;;;;;;-4.14;67.62;99652.58;5452650;53;21257;-81
2021/01/31 23:30:45;;;;;;;298.63;75.57;;;;;;;-4.18;67.62;99647.11;5456742;53;21153;-81
2021/01/31 23:35:52;;;;;;;253.83;70.40;;;;;;;-4.26;67.29;99641.33;5461286;53;21597;-81
2021/01/31 23:40:58;;;;;;;327.20;86.07;;;;;;;-4.27;67.62;99639.19;5514272;53;21477;-80
2021/01/31 23:46:03;;;;;;;302.10;85.07;;;;;;;-4.26;67.58;99641.33;5462364;53;21137;-80
2021/01/31 23:51:09;;;;;;;192.27;59.47;;;;;;;-4.33;67.01;99638.11;5374281;54;21142;-81
2021/01/31 23:56:14;;;;;;;135.13;46.27;;;;;;;-4.44;66.72;99643.22;5385484;54;21095;-80
